sensor_id;sensor_type;location;lat;lon;timestamp;P1;durP1;ratioP1;P2;durP2;ratioP2
46931;SDS011;32670;51.464;11.964;2023-04-15T00:01:07;1.20;;;1.10;;
46931;SDS011;32670;51.464;11.964;2023-04-15T00:03:33;1.20;;;1.10;;
46931;SDS011;32670;51.464;11.964;2023-04-15T00:05:59;1.10;;;1.10;;
46931;SDS011;32670;51.464;11.964;2023-04-15T00:08:25;1.33;;;1.23;;
46931;SDS011;32670;51.464;11.964;2023-04-15T00:10:51;1.20;;;1.10;;
46931;SDS011;32670;51.464;11.964;2023-04-15T00:13:17;1.87;;;1.00;;
46931;SDS011;32670;51.464;11.964;2023-04-15T00:15:42;1.13;;;1.03;;
46931;SDS011;32670;51.464;11.964;2023-04-15T00:18:08;1.13;;;1.07;;
46931;SDS011;32670;51.464;11.964;2023-04-15T00:20:33;1.23;;;1.17;;
46931;SDS011;32670;51.464;11.964;2023-04-15T00:23:00;1.30;;;1.20;;
46931;SDS011;32670;51.464;11.964;2023-04-15T00:25:26;1.00;;;1.00;;
46931;SDS011;32670;51.464;11.964;2023-04-15T00:27:52;1.30;;;1.20;;
46931;SDS011;32670;51.464;11.964;2023-04-15T00:30:17;2.70;;;1.30;;
46931;SDS011;32670;51.464;11.964;2023-04-15T00:32:43;1.13;;;1.03;;
46931;SDS011;32670;51.464;11.964;2023-04-15T00:35:09;1.20;;;1.10;;
46931;SDS011;32670;51.464;11.964;2023-04-15T00:37:34;4.67;;;1.60;;
46931;SDS011;32670;51.464;11.964;2023-04-15T00:40:00;1.50;;;1.17;;
46931;SDS011;32670;51.464;11.964;2023-04-15T00:42:29;1.50;;;1.30;;
46931;SDS011;32670;51.464;11.964;2023-04-15T00:44:55;1.00;;;1.00;;
46931;SDS011;32670;51.464;11.964;2023-04-15T00:47:21;1.20;;;1.10;;
46931;SDS011;32670;51.464;11.964;2023-04-15T00:49:47;1.33;;;1.23;;
46931;SDS011;32670;51.464;11.964;2023-04-15T00:52:12;1.23;;;1.10;;
46931;SDS011;32670;51.464;11.964;2023-04-15T00:54:38;1.13;;;0.90;;
46931;SDS011;32670;51.464;11.964;2023-04-15T00:57:04;1.40;;;1.10;;
46931;SDS011;32670;51.464;11.964;2023-04-15T00:59:30;1.57;;;1.30;;
46931;SDS011;32670;51.464;11.964;2023-04-15T01:01:57;1.00;;;1.00;;
46931;SDS011;32670;51.464;11.964;2023-04-15T01:04:23;1.23;;;1.03;;
46931;SDS011;32670;51.464;11.964;2023-04-15T01:06:49;1.30;;;1.20;;
46931;SDS011;32670;51.464;11.964;2023-04-15T01:09:15;1.20;;;1.10;;
46931;SDS011;32670;51.464;11.964;2023-04-15T01:11:41;1.27;;;1.17;;
46931;SDS011;32670;51.464;11.964;2023-04-15T01:14:07;1.63;;;0.93;;
46931;SDS011;32670;51.464;11.964;2023-04-15T01:16:33;9.93;;;1.43;;
46931;SDS011;32670;51.464;11.964;2023-04-15T01:19:00;1.33;;;0.90;;
46931;SDS011;32670;51.464;11.964;2023-04-15T01:21:26;1.20;;;1.10;;
46931;SDS011;32670;51.464;11.964;2023-04-15T01:23:52;1.20;;;1.10;;
46931;SDS011;32670;51.464;11.964;2023-04-15T01:26:19;0.93;;;0.93;;
46931;SDS011;32670;51.464;11.964;2023-04-15T01:28:46;4.83;;;1.40;;
46931;SDS011;32670;51.464;11.964;2023-04-15T01:31:13;2.97;;;1.47;;
46931;SDS011;32670;51.464;11.964;2023-04-15T01:33:40;1.23;;;1.10;;
46931;SDS011;32670;51.464;11.964;2023-04-15T01:36:06;1.27;;;1.07;;
46931;SDS011;32670;51.464;11.964;2023-04-15T01:38:33;6.03;;;1.30;;
46931;SDS011;32670;51.464;11.964;2023-04-15T01:41:00;2.30;;;0.90;;
46931;SDS011;32670;51.464;11.964;2023-04-15T01:43:25;1.20;;;1.10;;
46931;SDS011;32670;51.464;11.964;2023-04-15T01:45:52;4.50;;;1.30;;
46931;SDS011;32670;51.464;11.964;2023-04-15T01:48:17;1.60;;;1.00;;
46931;SDS011;32670;51.464;11.964;2023-04-15T01:50:43;2.10;;;1.20;;
46931;SDS011;32670;51.464;11.964;2023-04-15T01:53:09;3.47;;;1.20;;
46931;SDS011;32670;51.464;11.964;2023-04-15T01:55:34;1.10;;;1.10;;
46931;SDS011;32670;51.464;11.964;2023-04-15T01:58:01;1.23;;;1.13;;
46931;SDS011;32670;51.464;11.964;2023-04-15T02:00:26;0.93;;;0.93;;
46931;SDS011;32670;51.464;11.964;2023-04-15T02:02:52;2.70;;;1.10;;
46931;SDS011;32670;51.464;11.964;2023-04-15T02:05:17;1.53;;;1.00;;
46931;SDS011;32670;51.464;11.964;2023-04-15T02:07:43;1.17;;;1.00;;
46931;SDS011;32670;51.464;11.964;2023-04-15T02:10:09;1.57;;;1.00;;
46931;SDS011;32670;51.464;11.964;2023-04-15T02:12:37;1.87;;;1.10;;
46931;SDS011;32670;51.464;11.964;2023-04-15T02:15:03;3.10;;;1.13;;
46931;SDS011;32670;51.464;11.964;2023-04-15T02:17:29;1.57;;;0.93;;
46931;SDS011;32670;51.464;11.964;2023-04-15T02:19:58;1.10;;;1.10;;
46931;SDS011;32670;51.464;11.964;2023-04-15T02:22:24;2.10;;;1.10;;
46931;SDS011;32670;51.464;11.964;2023-04-15T02:24:49;2.10;;;1.20;;
46931;SDS011;32670;51.464;11.964;2023-04-15T02:27:15;3.03;;;1.20;;
46931;SDS011;32670;51.464;11.964;2023-04-15T02:29:44;1.10;;;1.00;;
46931;SDS011;32670;51.464;11.964;2023-04-15T02:32:10;1.37;;;1.20;;
46931;SDS011;32670;51.464;11.964;2023-04-15T02:34:37;1.53;;;1.43;;
46931;SDS011;32670;51.464;11.964;2023-04-15T02:37:05;1.30;;;1.10;;
46931;SDS011;32670;51.464;11.964;2023-04-15T02:39:31;1.43;;;1.33;;
46931;SDS011;32670;51.464;11.964;2023-04-15T02:41:57;1.33;;;1.17;;
46931;SDS011;32670;51.464;11.964;2023-04-15T02:44:24;1.50;;;1.30;;
46931;SDS011;32670;51.464;11.964;2023-04-15T02:46:50;1.10;;;1.00;;
46931;SDS011;32670;51.464;11.964;2023-04-15T02:49:17;1.70;;;1.10;;
46931;SDS011;32670;51.464;11.964;2023-04-15T02:51:44;1.43;;;1.20;;
46931;SDS011;32670;51.464;11.964;2023-04-15T02:54:13;1.43;;;1.07;;
46931;SDS011;32670;51.464;11.964;2023-04-15T02:56:42;1.20;;;1.10;;
46931;SDS011;32670;51.464;11.964;2023-04-15T02:59:08;1.57;;;1.10;;
46931;SDS011;32670;51.464;11.964;2023-04-15T03:01:33;2.00;;;1.10;;
46931;SDS011;32670;51.464;11.964;2023-04-15T03:03:58;1.23;;;1.13;;
46931;SDS011;32670;51.464;11.964;2023-04-15T03:06:24;1.10;;;1.00;;
46931;SDS011;32670;51.464;11.964;2023-04-15T03:08:50;1.47;;;1.20;;
46931;SDS011;32670;51.464;11.964;2023-04-15T03:11:15;0.90;;;0.90;;
46931;SDS011;32670;51.464;11.964;2023-04-15T03:13:41;1.10;;;1.00;;
46931;SDS011;32670;51.464;11.964;2023-04-15T03:16:07;1.00;;;0.90;;
46931;SDS011;32670;51.464;11.964;2023-04-15T03:18:33;1.23;;;1.10;;
46931;SDS011;32670;51.464;11.964;2023-04-15T03:20:58;1.10;;;1.00;;
46931;SDS011;32670;51.464;11.964;2023-04-15T03:23:27;0.93;;;0.90;;
46931;SDS011;32670;51.464;11.964;2023-04-15T03:25:52;1.10;;;1.00;;
46931;SDS011;32670;51.464;11.964;2023-04-15T03:28:19;0.90;;;0.90;;
46931;SDS011;32670;51.464;11.964;2023-04-15T03:30:45;1.67;;;1.10;;
46931;SDS011;32670;51.464;11.964;2023-04-15T03:33:10;2.93;;;1.03;;
46931;SDS011;32670;51.464;11.964;2023-04-15T03:35:36;0.90;;;0.90;;
46931;SDS011;32670;51.464;11.964;2023-04-15T03:38:02;1.13;;;1.10;;
46931;SDS011;32670;51.464;11.964;2023-04-15T03:40:27;1.40;;;1.00;;
46931;SDS011;32670;51.464;11.964;2023-04-15T03:42:52;1.20;;;1.07;;
46931;SDS011;32670;51.464;11.964;2023-04-15T03:45:18;0.90;;;0.90;;
46931;SDS011;32670;51.464;11.964;2023-04-15T03:47:43;1.73;;;1.10;;
46931;SDS011;32670;51.464;11.964;2023-04-15T03:50:09;1.20;;;1.10;;
46931;SDS011;32670;51.464;11.964;2023-04-15T03:52:35;1.10;;;1.00;;
46931;SDS011;32670;51.464;11.964;2023-04-15T03:55:00;2.80;;;1.10;;
46931;SDS011;32670;51.464;11.964;2023-04-15T03:57:26;2.07;;;1.17;;
46931;SDS011;32670;51.464;11.964;2023-04-15T03:59:51;0.97;;;0.97;;
46931;SDS011;32670;51.464;11.964;2023-04-15T04:02:17;0.90;;;0.90;;
46931;SDS011;32670;51.464;11.964;2023-04-15T04:04:42;1.00;;;0.90;;
46931;SDS011;32670;51.464;11.964;2023-04-15T04:07:08;1.17;;;0.83;;
46931;SDS011;32670;51.464;11.964;2023-04-15T04:09:39;1.40;;;0.90;;
46931;SDS011;32670;51.464;11.964;2023-04-15T04:12:05;1.00;;;0.90;;
46931;SDS011;32670;51.464;11.964;2023-04-15T04:14:31;1.07;;;0.90;;
46931;SDS011;32670;51.464;11.964;2023-04-15T04:16:56;1.73;;;1.20;;
46931;SDS011;32670;51.464;11.964;2023-04-15T04:19:22;1.10;;;0.83;;
46931;SDS011;32670;51.464;11.964;2023-04-15T04:21:47;2.70;;;1.10;;
46931;SDS011;32670;51.464;11.964;2023-04-15T04:24:13;0.70;;;0.70;;
46931;SDS011;32670;51.464;11.964;2023-04-15T04:26:38;1.43;;;1.07;;
46931;SDS011;32670;51.464;11.964;2023-04-15T04:29:06;1.00;;;0.90;;
46931;SDS011;32670;51.464;11.964;2023-04-15T04:31:32;0.97;;;0.93;;
46931;SDS011;32670;51.464;11.964;2023-04-15T04:33:57;1.30;;;0.90;;
46931;SDS011;32670;51.464;11.964;2023-04-15T04:36:23;0.90;;;0.90;;
46931;SDS011;32670;51.464;11.964;2023-04-15T04:38:48;1.00;;;1.00;;
46931;SDS011;32670;51.464;11.964;2023-04-15T04:41:14;2.67;;;0.80;;
46931;SDS011;32670;51.464;11.964;2023-04-15T04:43:39;3.47;;;1.30;;
46931;SDS011;32670;51.464;11.964;2023-04-15T04:46:05;2.10;;;1.00;;
46931;SDS011;32670;51.464;11.964;2023-04-15T04:48:30;1.50;;;1.00;;
46931;SDS011;32670;51.464;11.964;2023-04-15T04:50:55;2.67;;;1.00;;
46931;SDS011;32670;51.464;11.964;2023-04-15T04:53:21;2.70;;;1.00;;
46931;SDS011;32670;51.464;11.964;2023-04-15T04:55:46;1.10;;;1.00;;
46931;SDS011;32670;51.464;11.964;2023-04-15T04:58:12;1.17;;;0.97;;
46931;SDS011;32670;51.464;11.964;2023-04-15T05:00:38;0.93;;;0.83;;
46931;SDS011;32670;51.464;11.964;2023-04-15T05:03:04;2.97;;;0.90;;
46931;SDS011;32670;51.464;11.964;2023-04-15T05:05:30;3.90;;;1.10;;
46931;SDS011;32670;51.464;11.964;2023-04-15T05:07:55;1.67;;;0.90;;
46931;SDS011;32670;51.464;11.964;2023-04-15T05:10:20;1.93;;;1.00;;
46931;SDS011;32670;51.464;11.964;2023-04-15T05:12:46;1.20;;;1.00;;
46931;SDS011;32670;51.464;11.964;2023-04-15T05:15:11;1.10;;;1.00;;
46931;SDS011;32670;51.464;11.964;2023-04-15T05:17:37;0.80;;;0.80;;
46931;SDS011;32670;51.464;11.964;2023-04-15T05:20:02;1.60;;;0.80;;
46931;SDS011;32670;51.464;11.964;2023-04-15T05:22:28;2.97;;;0.90;;
46931;SDS011;32670;51.464;11.964;2023-04-15T05:24:54;2.33;;;1.00;;
46931;SDS011;32670;51.464;11.964;2023-04-15T05:27:20;1.63;;;0.93;;
46931;SDS011;32670;51.464;11.964;2023-04-15T05:29:46;1.00;;;0.90;;
46931;SDS011;32670;51.464;11.964;2023-04-15T05:32:12;1.73;;;1.00;;
46931;SDS011;32670;51.464;11.964;2023-04-15T05:34:37;3.00;;;0.90;;
46931;SDS011;32670;51.464;11.964;2023-04-15T05:37:03;7.03;;;1.20;;
46931;SDS011;32670;51.464;11.964;2023-04-15T05:39:28;3.33;;;0.90;;
46931;SDS011;32670;51.464;11.964;2023-04-15T05:41:55;1.47;;;1.00;;
46931;SDS011;32670;51.464;11.964;2023-04-15T05:44:21;1.57;;;0.90;;
46931;SDS011;32670;51.464;11.964;2023-04-15T05:46:47;3.07;;;1.10;;
46931;SDS011;32670;51.464;11.964;2023-04-15T05:49:12;1.17;;;1.07;;
46931;SDS011;32670;51.464;11.964;2023-04-15T05:51:37;1.13;;;0.93;;
46931;SDS011;32670;51.464;11.964;2023-04-15T05:54:03;2.13;;;1.17;;
46931;SDS011;32670;51.464;11.964;2023-04-15T05:56:28;6.73;;;1.57;;
46931;SDS011;32670;51.464;11.964;2023-04-15T05:58:54;4.80;;;1.53;;
46931;SDS011;32670;51.464;11.964;2023-04-15T06:01:20;5.20;;;1.80;;
46931;SDS011;32670;51.464;11.964;2023-04-15T06:03:46;4.67;;;1.93;;
46931;SDS011;32670;51.464;11.964;2023-04-15T06:06:12;2.27;;;2.17;;
46931;SDS011;32670;51.464;11.964;2023-04-15T06:08:38;1.97;;;1.87;;
46931;SDS011;32670;51.464;11.964;2023-04-15T06:11:03;2.10;;;2.00;;
46931;SDS011;32670;51.464;11.964;2023-04-15T06:13:29;2.40;;;2.20;;
46931;SDS011;32670;51.464;11.964;2023-04-15T06:15:55;3.07;;;2.20;;
46931;SDS011;32670;51.464;11.964;2023-04-15T06:18:20;2.20;;;2.10;;
46931;SDS011;32670;51.464;11.964;2023-04-15T06:20:46;1.90;;;1.80;;
46931;SDS011;32670;51.464;11.964;2023-04-15T06:23:11;2.30;;;2.20;;
46931;SDS011;32670;51.464;11.964;2023-04-15T06:25:37;2.17;;;2.07;;
46931;SDS011;32670;51.464;11.964;2023-04-15T06:28:02;2.13;;;2.03;;
46931;SDS011;32670;51.464;11.964;2023-04-15T06:30:28;2.87;;;2.67;;
46931;SDS011;32670;51.464;11.964;2023-04-15T06:32:53;2.37;;;2.27;;
46931;SDS011;32670;51.464;11.964;2023-04-15T06:35:19;2.37;;;2.27;;
46931;SDS011;32670;51.464;11.964;2023-04-15T06:37:45;2.23;;;2.13;;
46931;SDS011;32670;51.464;11.964;2023-04-15T06:40:10;2.57;;;2.40;;
46931;SDS011;32670;51.464;11.964;2023-04-15T06:42:36;2.70;;;2.50;;
46931;SDS011;32670;51.464;11.964;2023-04-15T06:45:02;3.10;;;2.90;;
46931;SDS011;32670;51.464;11.964;2023-04-15T06:47:27;2.53;;;2.43;;
46931;SDS011;32670;51.464;11.964;2023-04-15T06:49:53;2.60;;;2.40;;
46931;SDS011;32670;51.464;11.964;2023-04-15T06:52:18;2.90;;;2.70;;
46931;SDS011;32670;51.464;11.964;2023-04-15T06:54:44;2.87;;;2.67;;
46931;SDS011;32670;51.464;11.964;2023-04-15T06:57:09;2.90;;;2.70;;
46931;SDS011;32670;51.464;11.964;2023-04-15T06:59:35;2.70;;;2.50;;
46931;SDS011;32670;51.464;11.964;2023-04-15T07:02:00;2.97;;;2.70;;
46931;SDS011;32670;51.464;11.964;2023-04-15T07:04:26;2.47;;;2.37;;
46931;SDS011;32670;51.464;11.964;2023-04-15T07:06:51;2.80;;;2.60;;
46931;SDS011;32670;51.464;11.964;2023-04-15T07:09:18;2.40;;;2.30;;
46931;SDS011;32670;51.464;11.964;2023-04-15T07:11:43;3.10;;;2.90;;
46931;SDS011;32670;51.464;11.964;2023-04-15T07:14:12;2.47;;;2.37;;
46931;SDS011;32670;51.464;11.964;2023-04-15T07:16:38;2.47;;;2.37;;
46931;SDS011;32670;51.464;11.964;2023-04-15T07:19:03;2.77;;;2.57;;
46931;SDS011;32670;51.464;11.964;2023-04-15T07:21:29;2.50;;;2.33;;
46931;SDS011;32670;51.464;11.964;2023-04-15T07:23:54;2.87;;;2.67;;
46931;SDS011;32670;51.464;11.964;2023-04-15T07:26:20;2.50;;;2.40;;
46931;SDS011;32670;51.464;11.964;2023-04-15T07:28:45;2.80;;;2.60;;
46931;SDS011;32670;51.464;11.964;2023-04-15T07:31:11;2.77;;;2.57;;
46931;SDS011;32670;51.464;11.964;2023-04-15T07:33:37;3.20;;;2.80;;
46931;SDS011;32670;51.464;11.964;2023-04-15T07:36:02;3.10;;;2.80;;
46931;SDS011;32670;51.464;11.964;2023-04-15T07:38:28;2.83;;;2.63;;
46931;SDS011;32670;51.464;11.964;2023-04-15T07:40:53;2.70;;;2.50;;
46931;SDS011;32670;51.464;11.964;2023-04-15T07:43:19;2.80;;;2.60;;
46931;SDS011;32670;51.464;11.964;2023-04-15T07:45:45;2.90;;;2.70;;
46931;SDS011;32670;51.464;11.964;2023-04-15T07:48:10;2.97;;;2.77;;
46931;SDS011;32670;51.464;11.964;2023-04-15T07:50:36;2.40;;;2.27;;
46931;SDS011;32670;51.464;11.964;2023-04-15T07:53:02;2.80;;;2.60;;
46931;SDS011;32670;51.464;11.964;2023-04-15T07:55:27;2.87;;;2.70;;
46931;SDS011;32670;51.464;11.964;2023-04-15T07:57:54;2.57;;;2.47;;
46931;SDS011;32670;51.464;11.964;2023-04-15T08:00:20;2.63;;;2.43;;
46931;SDS011;32670;51.464;11.964;2023-04-15T08:02:46;2.57;;;2.37;;
46931;SDS011;32670;51.464;11.964;2023-04-15T08:05:12;2.50;;;2.30;;
46931;SDS011;32670;51.464;11.964;2023-04-15T08:07:39;2.33;;;2.20;;
46931;SDS011;32670;51.464;11.964;2023-04-15T08:10:04;2.60;;;2.40;;
46931;SDS011;32670;51.464;11.964;2023-04-15T08:12:31;2.70;;;2.50;;
46931;SDS011;32670;51.464;11.964;2023-04-15T08:14:56;2.13;;;2.03;;
46931;SDS011;32670;51.464;11.964;2023-04-15T08:17:22;2.63;;;2.43;;
46931;SDS011;32670;51.464;11.964;2023-04-15T08:19:48;6.50;;;2.20;;
46931;SDS011;32670;51.464;11.964;2023-04-15T08:22:13;5.37;;;2.20;;
46931;SDS011;32670;51.464;11.964;2023-04-15T08:24:39;7.87;;;1.97;;
46931;SDS011;32670;51.464;11.964;2023-04-15T08:27:05;5.30;;;2.10;;
46931;SDS011;32670;51.464;11.964;2023-04-15T08:29:31;2.53;;;2.00;;
46931;SDS011;32670;51.464;11.964;2023-04-15T08:31:58;2.57;;;1.93;;
46931;SDS011;32670;51.464;11.964;2023-04-15T08:34:27;6.50;;;2.20;;
46931;SDS011;32670;51.464;11.964;2023-04-15T08:36:53;7.30;;;1.83;;
46931;SDS011;32670;51.464;11.964;2023-04-15T08:39:19;2.97;;;1.63;;
46931;SDS011;32670;51.464;11.964;2023-04-15T08:41:45;3.43;;;1.77;;
46931;SDS011;32670;51.464;11.964;2023-04-15T08:44:11;2.33;;;1.57;;
46931;SDS011;32670;51.464;11.964;2023-04-15T08:46:38;5.57;;;1.90;;
46931;SDS011;32670;51.464;11.964;2023-04-15T08:49:06;1.80;;;1.70;;
46931;SDS011;32670;51.464;11.964;2023-04-15T08:51:34;2.70;;;1.70;;
46931;SDS011;32670;51.464;11.964;2023-04-15T08:54:02;1.60;;;1.50;;
46931;SDS011;32670;51.464;11.964;2023-04-15T08:56:30;1.80;;;1.50;;
46931;SDS011;32670;51.464;11.964;2023-04-15T08:58:58;2.97;;;1.60;;
46931;SDS011;32670;51.464;11.964;2023-04-15T09:01:24;2.00;;;1.60;;
46931;SDS011;32670;51.464;11.964;2023-04-15T09:03:50;4.07;;;1.43;;
46931;SDS011;32670;51.464;11.964;2023-04-15T09:06:18;1.67;;;1.57;;
46931;SDS011;32670;51.464;11.964;2023-04-15T09:08:45;2.27;;;1.50;;
46931;SDS011;32670;51.464;11.964;2023-04-15T09:11:10;2.70;;;1.40;;
46931;SDS011;32670;51.464;11.964;2023-04-15T09:13:36;1.70;;;1.60;;
46931;SDS011;32670;51.464;11.964;2023-04-15T09:16:02;1.50;;;1.40;;
46931;SDS011;32670;51.464;11.964;2023-04-15T09:18:30;2.33;;;1.47;;
46931;SDS011;32670;51.464;11.964;2023-04-15T09:21:06;1.50;;;1.40;;
46931;SDS011;32670;51.464;11.964;2023-04-15T09:23:35;1.67;;;1.57;;
46931;SDS011;32670;51.464;11.964;2023-04-15T09:26:01;2.63;;;1.30;;
46931;SDS011;32670;51.464;11.964;2023-04-15T09:28:27;1.77;;;1.40;;
46931;SDS011;32670;51.464;11.964;2023-04-15T09:30:57;2.03;;;1.33;;
46931;SDS011;32670;51.464;11.964;2023-04-15T09:33:26;1.57;;;1.30;;
46931;SDS011;32670;51.464;11.964;2023-04-15T09:35:56;2.80;;;1.60;;
46931;SDS011;32670;51.464;11.964;2023-04-15T09:38:29;1.80;;;1.60;;
46931;SDS011;32670;51.464;11.964;2023-04-15T09:40:55;2.10;;;1.50;;
46931;SDS011;32670;51.464;11.964;2023-04-15T09:43:21;1.53;;;1.40;;
46931;SDS011;32670;51.464;11.964;2023-04-15T09:45:51;1.67;;;1.57;;
46931;SDS011;32670;51.464;11.964;2023-04-15T09:48:18;1.47;;;1.37;;
46931;SDS011;32670;51.464;11.964;2023-04-15T09:50:45;1.40;;;1.30;;
46931;SDS011;32670;51.464;11.964;2023-04-15T09:53:18;2.67;;;1.50;;
46931;SDS011;32670;51.464;11.964;2023-04-15T09:55:45;4.00;;;1.37;;
46931;SDS011;32670;51.464;11.964;2023-04-15T09:58:21;1.73;;;1.63;;
46931;SDS011;32670;51.464;11.964;2023-04-15T10:00:50;1.50;;;1.40;;
46931;SDS011;32670;51.464;11.964;2023-04-15T10:03:26;1.60;;;1.50;;
46931;SDS011;32670;51.464;11.964;2023-04-15T10:05:54;1.40;;;1.30;;
46931;SDS011;32670;51.464;11.964;2023-04-15T10:08:22;2.77;;;1.53;;
46931;SDS011;32670;51.464;11.964;2023-04-15T10:10:49;1.50;;;1.37;;
46931;SDS011;32670;51.464;11.964;2023-04-15T10:13:18;1.40;;;1.30;;
46931;SDS011;32670;51.464;11.964;2023-04-15T10:15:56;2.40;;;1.50;;
46931;SDS011;32670;51.464;11.964;2023-04-15T10:18:37;1.50;;;1.40;;
46931;SDS011;32670;51.464;11.964;2023-04-15T10:21:07;1.73;;;1.63;;
46931;SDS011;32670;51.464;11.964;2023-04-15T10:23:33;1.80;;;1.70;;
46931;SDS011;32670;51.464;11.964;2023-04-15T10:25:59;1.40;;;1.30;;
46931;SDS011;32670;51.464;11.964;2023-04-15T10:28:25;2.23;;;1.70;;
46931;SDS011;32670;51.464;11.964;2023-04-15T10:30:51;1.83;;;1.73;;
46931;SDS011;32670;51.464;11.964;2023-04-15T10:33:18;1.80;;;1.70;;
46931;SDS011;32670;51.464;11.964;2023-04-15T10:35:45;2.03;;;1.83;;
46931;SDS011;32670;51.464;11.964;2023-04-15T10:38:36;1.80;;;1.70;;
46931;SDS011;32670;51.464;11.964;2023-04-15T10:41:22;2.33;;;1.80;;
46931;SDS011;32670;51.464;11.964;2023-04-15T10:43:53;2.73;;;1.83;;
46931;SDS011;32670;51.464;11.964;2023-04-15T10:46:39;1.67;;;1.57;;
46931;SDS011;32670;51.464;11.964;2023-04-15T10:49:09;1.70;;;1.60;;
46931;SDS011;32670;51.464;11.964;2023-04-15T10:51:38;1.80;;;1.70;;
46931;SDS011;32670;51.464;11.964;2023-04-15T10:54:15;2.00;;;1.77;;
46931;SDS011;32670;51.464;11.964;2023-04-15T10:59:28;1.60;;;1.50;;
46931;SDS011;32670;51.464;11.964;2023-04-15T11:02:00;1.80;;;1.70;;
46931;SDS011;32670;51.464;11.964;2023-04-15T11:10:50;1.70;;;1.60;;
46931;SDS011;32670;51.464;11.964;2023-04-15T11:12:51;1.80;;;1.70;;
46931;SDS011;32670;51.464;11.964;2023-04-15T11:15:27;1.63;;;1.53;;
46931;SDS011;32670;51.464;11.964;2023-04-15T11:18:08;1.83;;;1.73;;
46931;SDS011;32670;51.464;11.964;2023-04-15T11:20:41;2.50;;;1.70;;
46931;SDS011;32670;51.464;11.964;2023-04-15T11:23:09;1.60;;;1.50;;
46931;SDS011;32670;51.464;11.964;2023-04-15T11:25:35;1.70;;;1.60;;
46931;SDS011;32670;51.464;11.964;2023-04-15T11:28:03;1.77;;;1.60;;
46931;SDS011;32670;51.464;11.964;2023-04-15T11:30:33;1.63;;;1.53;;
46931;SDS011;32670;51.464;11.964;2023-04-15T11:33:01;1.50;;;1.40;;
46931;SDS011;32670;51.464;11.964;2023-04-15T11:35:28;2.00;;;1.90;;
46931;SDS011;32670;51.464;11.964;2023-04-15T11:37:54;2.00;;;1.77;;
46931;SDS011;32670;51.464;11.964;2023-04-15T11:40:24;1.90;;;1.53;;
46931;SDS011;32670;51.464;11.964;2023-04-15T11:43:05;1.77;;;1.67;;
46931;SDS011;32670;51.464;11.964;2023-04-15T11:45:47;1.60;;;1.50;;
46931;SDS011;32670;51.464;11.964;2023-04-15T11:48:27;1.70;;;1.60;;
46931;SDS011;32670;51.464;11.964;2023-04-15T11:50:54;1.60;;;1.50;;
46931;SDS011;32670;51.464;11.964;2023-04-15T11:53:21;1.77;;;1.67;;
46931;SDS011;32670;51.464;11.964;2023-04-15T11:55:49;1.70;;;1.60;;
46931;SDS011;32670;51.464;11.964;2023-04-15T11:58:22;1.60;;;1.50;;
46931;SDS011;32670;51.464;11.964;2023-04-15T12:00:59;1.70;;;1.60;;
46931;SDS011;32670;51.464;11.964;2023-04-15T12:03:38;1.80;;;1.67;;
46931;SDS011;32670;51.464;11.964;2023-04-15T12:06:23;1.83;;;1.73;;
46931;SDS011;32670;51.464;11.964;2023-04-15T13:42:15;2.40;;;2.20;;
46931;SDS011;32670;51.464;11.964;2023-04-15T13:44:40;2.50;;;2.30;;
46931;SDS011;32670;51.464;11.964;2023-04-15T13:47:06;2.50;;;2.30;;
46931;SDS011;32670;51.464;11.964;2023-04-15T13:49:31;2.43;;;2.23;;
46931;SDS011;32670;51.464;11.964;2023-04-15T13:51:57;2.33;;;2.23;;
46931;SDS011;32670;51.464;11.964;2023-04-15T13:54:22;2.20;;;2.10;;
46931;SDS011;32670;51.464;11.964;2023-04-15T13:56:47;2.40;;;2.20;;
46931;SDS011;32670;51.464;11.964;2023-04-15T13:59:13;2.30;;;2.10;;
46931;SDS011;32670;51.464;11.964;2023-04-15T14:01:38;3.07;;;2.37;;
46931;SDS011;32670;51.464;11.964;2023-04-15T14:04:05;3.33;;;3.07;;
46931;SDS011;32670;51.464;11.964;2023-04-15T14:06:30;3.20;;;2.90;;
46931;SDS011;32670;51.464;11.964;2023-04-15T14:08:56;3.20;;;3.00;;
46931;SDS011;32670;51.464;11.964;2023-04-15T14:11:21;3.70;;;3.40;;
46931;SDS011;32670;51.464;11.964;2023-04-15T14:13:47;3.33;;;3.03;;
46931;SDS011;32670;51.464;11.964;2023-04-15T14:16:12;3.50;;;3.20;;
46931;SDS011;32670;51.464;11.964;2023-04-15T14:18:38;3.63;;;2.90;;
46931;SDS011;32670;51.464;11.964;2023-04-15T14:21:04;3.30;;;3.10;;
46931;SDS011;32670;51.464;11.964;2023-04-15T14:23:30;3.70;;;3.10;;
46931;SDS011;32670;51.464;11.964;2023-04-15T14:25:56;3.17;;;2.97;;
46931;SDS011;32670;51.464;11.964;2023-04-15T14:28:22;3.13;;;2.80;;
46931;SDS011;32670;51.464;11.964;2023-04-15T14:30:48;3.47;;;3.17;;
46931;SDS011;32670;51.464;11.964;2023-04-15T14:33:13;3.30;;;3.00;;
46931;SDS011;32670;51.464;11.964;2023-04-15T14:35:39;3.67;;;3.10;;
46931;SDS011;32670;51.464;11.964;2023-04-15T14:38:04;3.13;;;2.93;;
46931;SDS011;32670;51.464;11.964;2023-04-15T14:40:32;3.60;;;3.30;;
46931;SDS011;32670;51.464;11.964;2023-04-15T14:42:57;3.60;;;3.30;;
46931;SDS011;32670;51.464;11.964;2023-04-15T14:45:23;3.27;;;2.97;;
46931;SDS011;32670;51.464;11.964;2023-04-15T14:47:48;2.80;;;2.60;;
46931;SDS011;32670;51.464;11.964;2023-04-15T14:50:14;3.10;;;2.90;;
46931;SDS011;32670;51.464;11.964;2023-04-15T14:52:40;3.20;;;2.90;;
46931;SDS011;32670;51.464;11.964;2023-04-15T14:55:07;2.80;;;2.60;;
46931;SDS011;32670;51.464;11.964;2023-04-15T14:57:34;3.40;;;3.10;;
46931;SDS011;32670;51.464;11.964;2023-04-15T14:59:59;3.10;;;2.90;;
46931;SDS011;32670;51.464;11.964;2023-04-15T15:02:25;3.20;;;2.90;;
46931;SDS011;32670;51.464;11.964;2023-04-15T15:04:50;3.03;;;2.80;;
46931;SDS011;32670;51.464;11.964;2023-04-15T15:07:16;3.03;;;2.83;;
46931;SDS011;32670;51.464;11.964;2023-04-15T15:09:41;2.80;;;2.60;;
46931;SDS011;32670;51.464;11.964;2023-04-15T15:12:07;2.93;;;2.73;;
46931;SDS011;32670;51.464;11.964;2023-04-15T15:14:32;3.37;;;3.13;;
46931;SDS011;32670;51.464;11.964;2023-04-15T15:16:58;2.90;;;2.70;;
46931;SDS011;32670;51.464;11.964;2023-04-15T15:19:23;3.10;;;2.90;;
46931;SDS011;32670;51.464;11.964;2023-04-15T15:21:49;2.77;;;2.57;;
46931;SDS011;32670;51.464;11.964;2023-04-15T15:24:15;2.97;;;2.77;;
46931;SDS011;32670;51.464;11.964;2023-04-15T15:26:40;3.00;;;2.80;;
46931;SDS011;32670;51.464;11.964;2023-04-15T15:29:06;3.27;;;2.77;;
46931;SDS011;32670;51.464;11.964;2023-04-15T15:31:33;3.00;;;2.80;;
46931;SDS011;32670;51.464;11.964;2023-04-15T15:33:59;2.90;;;2.70;;
46931;SDS011;32670;51.464;11.964;2023-04-15T15:36:25;2.97;;;2.77;;
46931;SDS011;32670;51.464;11.964;2023-04-15T15:38:51;3.30;;;3.00;;
46931;SDS011;32670;51.464;11.964;2023-04-15T15:41:16;3.80;;;2.80;;
46931;SDS011;32670;51.464;11.964;2023-04-15T15:43:42;2.77;;;2.57;;
46931;SDS011;32670;51.464;11.964;2023-04-15T15:46:07;3.33;;;2.50;;
46931;SDS011;32670;51.464;11.964;2023-04-15T15:48:33;3.00;;;2.80;;
46931;SDS011;32670;51.464;11.964;2023-04-15T15:50:58;2.90;;;2.70;;
46931;SDS011;32670;51.464;11.964;2023-04-15T15:53:25;3.00;;;2.80;;
46931;SDS011;32670;51.464;11.964;2023-04-15T15:55:50;2.80;;;2.60;;
46931;SDS011;32670;51.464;11.964;2023-04-15T15:58:16;2.87;;;2.60;;
46931;SDS011;32670;51.464;11.964;2023-04-15T16:00:41;2.40;;;2.20;;
46931;SDS011;32670;51.464;11.964;2023-04-15T16:03:07;2.87;;;2.67;;
46931;SDS011;32670;51.464;11.964;2023-04-15T16:05:32;3.00;;;2.80;;
46931;SDS011;32670;51.464;11.964;2023-04-15T16:07:58;2.60;;;2.40;;
46931;SDS011;32670;51.464;11.964;2023-04-15T16:10:23;2.90;;;2.70;;
46931;SDS011;32670;51.464;11.964;2023-04-15T16:12:49;3.20;;;2.90;;